Forest Hills, Georgia
Current Conditions -  °F | °C
As of 6:53 PM on Thursday 18 Dec 2014 (Local Time) from KDNL Reporting Station
Clear Clear  
Wind Chill: 54°   Ceiling: Unl
Heat Index: 54°   Visibility: 10mi
Dew Point: 41°   Wind: 5mph
Humidity: 62%   Direction: 320°NW
Pressure: 30.09"   Gusts: NA
Location:  33.4713°N, 82.0854°W
Report Text: KDNL 182353Z AUTO 32004KT 10SM CLR 12/05 A3009 RMK AO2 SLP190 T01220050 10172 20122 51007
Loading
Personal Weather Stations






























Interactive Weather Map New forecast layout! Learn more

10-Day Weather Forecast

Advertisements
Track Severe Weather on mobile